Time;durP1;ratioP1;P1;durP2;ratioP2;P2;SDS_P1;SDS_P2;PMS_P1;PMS_P2;Temp;Humidity;BMP_temperature;BMP_pressure;BME280_temperature;BME280_humidity;BME280_pressure;Samples;Min_cycle;Max_cycle;Signal;HPM_P1;HPM_P2
2024/01/18 00:01:55;;;;;;;53.60;40.40;;;;;;;2.43;100.00;97549.11;108483;1282;21996;-79
2024/01/18 00:04:24;;;;;;;55.30;39.00;;;;;;;2.42;100.00;97547.95;108496;1283;22165;-79
2024/01/18 00:06:56;;;;;;;50.70;38.00;;;;;;;2.42;100.00;97551.20;108517;1283;21995;-79
2024/01/18 00:09:40;;;;;;;46.70;38.40;;;;;;;2.45;100.00;97546.77;108481;1283;22765;-77
2024/01/18 00:12:12;;;;;;;46.10;37.60;;;;;;;2.50;100.00;97545.84;108437;1283;22726;-79
2024/01/18 00:14:52;;;;;;;42.10;35.10;;;;;;;2.53;100.00;97546.05;108526;1283;22075;-81
2024/01/18 00:17:24;;;;;;;42.30;34.90;;;;;;;2.55;100.00;97540.98;108507;1283;21992;-79
2024/01/18 00:20:02;;;;;;;42.30;34.60;;;;;;;2.56;100.00;97539.54;108430;1283;22003;-79
2024/01/18 00:22:36;;;;;;;40.40;33.60;;;;;;;2.56;100.00;97538.65;108498;1283;22028;-78
2024/01/18 00:25:20;;;;;;;42.10;31.70;;;;;;;2.58;100.00;97541.64;108491;1283;22065;-80
2024/01/18 00:27:55;;;;;;;41.70;35.30;;;;;;;2.60;100.00;97549.98;108699;1283;22164;-79
2024/01/18 00:30:26;;;;;;;40.50;33.60;;;;;;;2.62;100.00;97558.29;108463;1283;21996;-80
2024/01/18 00:33:00;;;;;;;42.60;35.40;;;;;;;2.63;100.00;97560.95;108451;1283;22043;-79
2024/01/18 00:35:32;;;;;;;41.70;33.20;;;;;;;2.65;100.00;97566.55;108656;1283;22443;-80
2024/01/18 00:38:05;;;;;;;40.80;30.80;;;;;;;2.66;100.00;97573.16;108053;1288;22005;-80
2024/01/18 00:40:39;;;;;;;39.90;31.20;;;;;;;2.67;100.00;97569.35;107623;1293;23746;-79
2024/01/18 00:43:12;;;;;;;36.60;29.70;;;;;;;2.67;100.00;97573.45;107776;1293;22052;-78
2024/01/18 00:45:51;;;;;;;34.30;30.50;;;;;;;2.68;100.00;97575.66;107748;1294;22005;-78
2024/01/18 00:48:27;;;;;;;35.90;31.70;;;;;;;2.68;100.00;97585.94;107783;1294;22013;-78
2024/01/18 00:50:58;;;;;;;37.10;33.20;;;;;;;2.67;100.00;97587.92;107891;1293;22053;-78
2024/01/18 00:53:31;;;;;;;39.70;34.90;;;;;;;2.67;100.00;97590.32;107840;1282;23068;-78
2024/01/18 00:56:02;;;;;;;36.10;32.40;;;;;;;2.66;100.00;97592.09;108076;1287;21978;-78
2024/01/18 00:58:36;;;;;;;38.10;36.20;;;;;;;2.65;100.00;97591.11;107725;1292;22002;-80
2024/01/18 01:01:10;;;;;;;40.50;35.90;;;;;;;2.68;100.00;97596.41;107804;1292;22007;-78
2024/01/18 01:03:40;;;;;;;39.40;35.40;;;;;;;2.71;100.00;97594.73;107581;1295;22020;-79
2024/01/18 01:06:18;;;;;;;37.80;33.90;;;;;;;2.73;100.00;97595.31;107782;1291;22013;-80
2024/01/18 01:08:50;;;;;;;37.90;33.90;;;;;;;2.74;100.00;97598.23;107798;1291;22768;-79
2024/01/18 01:11:29;;;;;;;35.40;31.60;;;;;;;2.73;100.00;97603.23;107842;1291;23024;-78
2024/01/18 01:13:58;;;;;;;31.80;28.40;;;;;;;2.72;100.00;97608.25;107840;1291;23797;-78
2024/01/18 01:16:28;;;;;;;34.00;29.90;;;;;;;2.72;100.00;97609.13;108044;1287;22862;-79
2024/01/18 01:19:00;;;;;;;31.00;27.70;;;;;;;2.75;100.00;97610.88;108149;1287;22015;-79
2024/01/18 01:21:37;;;;;;;31.30;26.80;;;;;;;2.78;100.00;97616.05;108254;1283;23621;-78
2024/01/18 01:24:13;;;;;;;31.90;27.50;;;;;;;2.79;100.00;97612.72;108293;1283;23826;-78
2024/01/18 01:26:47;;;;;;;34.20;25.90;;;;;;;2.80;100.00;97607.70;108524;1272;23152;-78
2024/01/18 01:29:26;;;;;;;28.90;24.50;;;;;;;2.81;100.00;97599.92;108480;1283;22694;-78
2024/01/18 01:31:57;;;;;;;27.60;24.60;;;;;;;2.82;100.00;97597.63;107865;1289;22765;-80
2024/01/18 01:34:30;;;;;;;30.20;25.00;;;;;;;2.85;100.00;97590.78;107821;1289;22003;-79
2024/01/18 01:36:58;;;;;;;28.00;25.00;;;;;;;2.87;100.00;97589.48;107715;1289;23072;-77
2024/01/18 01:39:32;;;;;;;30.30;25.50;;;;;;;2.87;100.00;97593.60;108056;1288;22577;-77
2024/01/18 01:42:05;;;;;;;27.80;24.70;;;;;;;2.88;100.00;97594.04;107593;1294;22119;-77
2024/01/18 01:44:33;;;;;;;29.50;24.40;;;;;;;2.90;100.00;97597.06;107640;1294;22062;-78
2024/01/18 01:47:09;;;;;;;29.90;26.40;;;;;;;2.91;100.00;97596.98;107334;1294;23096;-79
2024/01/18 01:49:48;;;;;;;30.60;25.40;;;;;;;2.91;100.00;97596.16;107151;1299;22026;-79
2024/01/18 01:52:17;;;;;;;;;;;;;;;2.89;100.00;97604.64;106894;1303;23553;-78
2024/01/18 01:55:02;;;;;;;32.30;28.80;;;;;;;2.86;100.00;97611.17;106325;1308;23184;-78
2024/01/18 01:57:42;;;;;;;29.30;22.80;;;;;;;2.86;100.00;97613.25;107072;1303;22899;-79
2024/01/18 02:00:21;;;;;;;31.00;25.80;;;;;;;2.87;100.00;97613.19;107310;1297;22997;-79
2024/01/18 02:02:55;;;;;;;;;;;;;;;2.88;100.00;97618.82;107547;1297;22009;-77
2024/01/18 02:05:27;;;;;;;31.60;27.70;;;;;;;2.76;100.00;97614.46;107447;1297;23939;-79
2024/01/18 02:08:08;;;;;;;32.20;24.30;;;;;;;2.75;100.00;97617.92;107649;1292;22183;-78
2024/01/18 02:10:37;;;;;;;35.20;28.90;;;;;;;2.79;100.00;97622.36;107713;1294;22048;-77
2024/01/18 02:13:12;;;;;;;31.20;26.80;;;;;;;2.80;100.00;97621.62;107671;1292;22013;-79
2024/01/18 02:15:48;;;;;;;29.90;26.20;;;;;;;2.80;100.00;97621.24;107282;1298;22571;-79
2024/01/18 02:18:41;;;;;;;32.00;28.00;;;;;;;2.78;100.00;97627.02;107058;1301;22480;-78
2024/01/18 02:21:18;;;;;;;33.60;29.20;;;;;;;2.79;100.00;97640.71;106821;1302;22075;-78
2024/01/18 02:24:02;;;;;;;31.70;26.10;;;;;;;2.82;100.00;97644.36;106826;1302;23074;-78
2024/01/18 02:26:32;;;;;;;33.10;27.40;;;;;;;2.84;100.00;97647.51;107064;1301;22024;-78
2024/01/18 02:29:21;;;;;;;30.10;26.10;;;;;;;2.85;100.00;97647.46;106255;1305;23901;-79
2024/01/18 02:31:56;;;;;;;36.40;26.50;;;;;;;2.87;100.00;97646.36;106858;1300;22967;-79
2024/01/18 02:34:39;;;;;;;31.00;26.50;;;;;;;2.88;100.00;97649.02;106668;1304;23061;-79
2024/01/18 02:37:16;;;;;;;32.80;27.30;;;;;;;2.89;100.00;97654.30;106945;1300;24489;-78
2024/01/18 02:39:57;;;;;;;;;;;;;;;2.91;100.00;97646.11;106979;1299;24094;-79
2024/01/18 02:42:30;;;;;;;24.60;22.00;;;;;;;2.90;100.00;97647.90;107305;1298;22156;-79
2024/01/18 02:45:02;;;;;;;28.70;25.10;;;;;;;2.89;100.00;97649.69;107291;1299;23122;-80
2024/01/18 02:47:40;;;;;;;28.20;25.00;;;;;;;2.88;100.00;97657.79;107230;1297;23756;-78
2024/01/18 02:50:15;;;;;;;27.30;24.10;;;;;;;2.89;100.00;97666.02;107449;1297;22022;-79
2024/01/18 02:52:52;;;;;;;28.50;25.30;;;;;;;2.89;100.00;97665.11;107528;1295;23890;-79
2024/01/18 02:55:27;;;;;;;29.70;24.00;;;;;;;2.90;100.00;97664.23;107645;1295;22041;-77
2024/01/18 02:58:07;;;;;;;27.70;24.70;;;;;;;2.90;100.00;97667.86;107797;1289;23641;-80
2024/01/18 03:00:47;;;;;;;27.00;24.20;;;;;;;2.88;100.00;97670.69;108044;1290;22005;-80
2024/01/18 03:03:16;;;;;;;26.50;23.70;;;;;;;2.86;100.00;97676.27;108310;1289;22918;-79
2024/01/18 03:06:03;;;;;;;29.00;25.90;;;;;;;2.84;100.00;97679.11;108498;1283;23907;-81
2024/01/18 03:08:36;;;;;;;28.00;23.90;;;;;;;2.84;100.00;97679.30;108402;1286;23647;-81
2024/01/18 03:11:15;;;;;;;27.40;24.30;;;;;;;2.83;100.00;97682.43;108216;1291;22006;-79
2024/01/18 03:13:58;;;;;;;29.80;25.80;;;;;;;2.79;100.00;97681.41;107993;1292;22019;-78
2024/01/18 03:16:30;;;;;;;30.60;27.30;;;;;;;2.78;100.00;97683.86;107861;1290;22025;-81
2024/01/18 03:19:04;;;;;;;29.60;26.60;;;;;;;2.80;100.00;97688.93;108117;1289;22941;-79
2024/01/18 03:21:36;;;;;;;31.40;28.00;;;;;;;2.80;100.00;97685.16;107629;1296;21982;-79
2024/01/18 03:24:09;;;;;;;30.50;27.30;;;;;;;2.79;100.00;97680.89;107052;1301;22015;-78
2024/01/18 03:26:53;;;;;;;32.80;29.20;;;;;;;2.78;100.00;97679.09;106773;1299;261936;-78
2024/01/18 03:29:29;;;;;;;30.70;27.50;;;;;;;2.74;100.00;97682.02;107512;1292;22352;-78
2024/01/18 03:32:11;;;;;;;30.70;27.50;;;;;;;2.71;100.00;97684.55;107983;1292;22008;-78
2024/01/18 03:34:45;;;;;;;30.30;27.10;;;;;;;2.69;100.00;97687.38;107663;1292;22021;-79
2024/01/18 03:37:19;;;;;;;30.70;27.50;;;;;;;2.70;100.00;97691.95;107487;1295;22177;-78
2024/01/18 03:39:53;;;;;;;;;;;;;;;2.72;100.00;97695.99;107260;1299;22295;-79
2024/01/18 03:42:34;;;;;;;29.80;26.60;;;;;;;2.63;100.00;97698.49;107598;1294;24369;-78
2024/01/18 03:45:06;;;;;;;30.60;27.30;;;;;;;2.61;100.00;97698.40;107764;1294;22009;-77
2024/01/18 03:47:38;;;;;;;31.50;28.10;;;;;;;2.63;100.00;97703.34;107738;1294;22868;-79
2024/01/18 03:50:13;;;;;;;33.00;29.50;;;;;;;2.65;100.00;97715.59;107705;1295;22063;-77
2024/01/18 03:52:52;;;;;;;31.90;28.60;;;;;;;2.65;100.00;97720.38;107617;1294;22028;-79
2024/01/18 03:55:30;;;;;;;32.20;28.80;;;;;;;2.66;100.00;97722.74;107790;1289;23755;-79
2024/01/18 03:58:11;;;;;;;31.70;28.60;;;;;;;2.67;100.00;97727.18;108248;1283;22197;-78
2024/01/18 04:00:44;;;;;;;34.20;30.50;;;;;;;2.65;100.00;97733.41;108345;1283;23709;-78
2024/01/18 04:03:14;;;;;;;32.80;28.80;;;;;;;2.66;100.00;97743.16;108661;1283;21994;-78
2024/01/18 04:05:49;;;;;;;35.40;31.60;;;;;;;2.66;100.00;97750.06;108438;1283;21996;-79
2024/01/18 04:08:21;;;;;;;36.00;32.20;;;;;;;2.65;100.00;97752.70;108287;1283;21996;-77
2024/01/18 04:11:02;;;;;;;52.10;43.80;;;;;;;2.62;100.00;97762.08;108480;1283;23635;-78
2024/01/18 04:13:36;;;;;;;40.10;35.90;;;;;;;2.60;100.00;97770.62;108454;1283;21987;-79
2024/01/18 04:16:12;;;;;;;35.80;31.30;;;;;;;2.56;100.00;97779.35;108436;1283;22031;-77
2024/01/18 04:18:47;;;;;;;75.20;65.10;;;;;;;2.54;100.00;97777.05;108438;1283;22054;-79
2024/01/18 04:21:18;;;;;;;49.90;44.60;;;;;;;2.53;100.00;97775.04;107993;1290;22013;-80
2024/01/18 04:24:02;;;;;;;45.00;38.70;;;;;;;2.50;100.00;97772.91;107986;1290;22200;-79
2024/01/18 04:26:47;;;;;;;42.60;38.00;;;;;;;2.47;100.00;97784.61;107703;1293;22009;-77
2024/01/18 04:29:31;;;;;;;41.50;35.80;;;;;;;2.45;100.00;97791.02;107768;1292;22029;-78
2024/01/18 04:32:05;;;;;;;45.00;40.00;;;;;;;2.42;100.00;97790.98;107663;1293;22013;-78
2024/01/18 04:34:37;;;;;;;44.60;39.10;;;;;;;2.39;100.00;97784.80;107593;1293;22005;-77
2024/01/18 04:37:15;;;;;;;43.80;39.20;;;;;;;2.36;100.00;97786.29;107798;1293;22610;-77
2024/01/18 04:39:53;;;;;;;43.40;38.90;;;;;;;2.20;100.00;97768.83;107869;1288;23058;-79
2024/01/18 04:42:35;;;;;;;46.10;41.10;;;;;;;2.25;100.00;97790.03;108359;1288;22035;-77
2024/01/18 04:45:17;;;;;;;46.00;41.10;;;;;;;2.24;100.00;97798.65;108181;1289;22767;-78
2024/01/18 04:48:00;;;;;;;49.70;42.60;;;;;;;2.22;100.00;97807.53;108249;1289;22079;-79
2024/01/18 04:50:35;;;;;;;48.00;42.90;;;;;;;2.21;100.00;97818.35;108092;1289;22009;-78
2024/01/18 04:53:11;;;;;;;51.10;45.70;;;;;;;2.21;100.00;97819.41;107961;1289;23100;-77
2024/01/18 04:55:44;;;;;;;52.60;46.80;;;;;;;2.20;100.00;97824.07;108087;1289;22007;-77
2024/01/18 04:58:18;;;;;;;53.80;47.90;;;;;;;2.18;100.00;97825.88;108078;1288;22017;-79
2024/01/18 05:00:55;;;;;;;53.00;47.30;;;;;;;2.15;100.00;97830.63;107789;1289;22001;-78
2024/01/18 05:03:38;;;;;;;58.40;52.20;;;;;;;2.12;100.00;97834.72;108118;1283;23759;-76
2024/01/18 05:06:11;;;;;;;62.40;55.60;;;;;;;2.08;100.00;97834.38;108306;1283;22000;-78
2024/01/18 05:09:02;;;;;;;62.30;54.50;;;;;;;2.03;100.00;97836.11;108388;1283;22747;-78
2024/01/18 05:11:36;;;;;;;65.80;56.50;;;;;;;1.97;100.00;97839.81;108474;1283;21992;-78
2024/01/18 05:14:14;;;;;;;66.20;59.00;;;;;;;1.91;100.00;97848.64;108449;1283;23037;-78
2024/01/18 05:16:51;;;;;;;66.80;59.20;;;;;;;1.87;100.00;97853.63;108458;1283;22003;-79
2024/01/18 05:19:25;;;;;;;63.80;55.40;;;;;;;1.80;100.00;97852.53;108214;1282;22001;-78
2024/01/18 05:21:57;;;;;;;65.90;58.70;;;;;;;1.77;100.00;97851.96;107810;1292;22001;-79
2024/01/18 05:24:37;;;;;;;71.10;62.00;;;;;;;1.73;100.00;97853.66;107732;1292;23783;-79
2024/01/18 05:27:10;;;;;;;74.90;65.00;;;;;;;1.69;100.00;97862.27;107674;1292;23672;-77
2024/01/18 05:29:43;;;;;;;75.70;64.90;;;;;;;1.66;100.00;97864.63;107806;1292;23111;-78
2024/01/18 05:32:25;;;;;;;74.20;65.90;;;;;;;1.65;100.00;97864.16;107814;1292;22007;-79
2024/01/18 05:34:57;;;;;;;81.00;68.20;;;;;;;1.59;100.00;97861.98;107672;1292;22019;-78
2024/01/18 05:37:36;;;;;;;76.10;66.70;;;;;;;1.63;100.00;97879.00;107850;1290;22008;-79
2024/01/18 05:40:22;;;;;;;74.90;63.80;;;;;;;1.62;100.00;97881.95;108195;1283;22770;-78
2024/01/18 05:43:12;;;;;;;75.80;65.90;;;;;;;1.60;100.00;97885.95;108231;1287;22011;-76
2024/01/18 05:45:56;;;;;;;70.70;62.20;;;;;;;1.57;100.00;97883.15;108027;1287;21995;-79
2024/01/18 05:48:36;;;;;;;69.20;60.50;;;;;;;1.57;100.00;97883.00;107909;1287;23232;-79
2024/01/18 05:51:09;;;;;;;72.20;61.90;;;;;;;1.59;100.00;97883.44;108375;1287;21938;-78
2024/01/18 05:53:38;;;;;;;69.30;58.50;;;;;;;1.61;100.00;97887.45;108136;1287;22029;-77
2024/01/18 05:56:20;;;;;;;71.70;59.00;;;;;;;1.60;100.00;97897.09;107565;1293;21972;-78
2024/01/18 05:58:51;;;;;;;76.70;63.60;;;;;;;1.59;100.00;97904.17;107848;1293;22040;-79
2024/01/18 06:01:23;;;;;;;73.10;64.50;;;;;;;1.56;100.00;97907.35;107759;1290;23068;-78
2024/01/18 06:03:57;;;;;;;83.50;69.50;;;;;;;1.55;100.00;97910.67;108089;1290;22024;-79
2024/01/18 06:06:31;;;;;;;86.20;71.30;;;;;;;1.52;100.00;97914.35;108040;1289;22778;-77
2024/01/18 06:09:00;;;;;;;84.00;69.40;;;;;;;1.50;100.00;97918.91;108162;1287;22034;-79
2024/01/18 06:11:45;;;;;;;86.50;70.60;;;;;;;1.46;100.00;97929.53;107756;1294;24588;-78
2024/01/18 06:14:18;;;;;;;87.10;72.70;;;;;;;1.42;100.00;97938.45;107728;1288;22009;-78
2024/01/18 06:17:02;;;;;;;83.00;71.50;;;;;;;1.41;100.00;97948.08;108182;1288;22068;-79
2024/01/18 06:19:33;;;;;;;82.10;70.00;;;;;;;1.42;100.00;97956.09;108114;1288;22027;-78
2024/01/18 06:22:03;;;;;;;83.60;69.70;;;;;;;1.43;100.00;97955.19;108091;1288;22002;-78
2024/01/18 06:24:42;;;;;;;72.40;61.10;;;;;;;1.45;100.00;97955.29;108151;1288;22048;-78
2024/01/18 06:27:16;;;;;;;85.70;73.10;;;;;;;1.46;100.00;97959.19;108123;1288;21974;-79
2024/01/18 06:29:45;;;;;;;83.10;70.40;;;;;;;1.46;100.00;97966.74;107703;1288;22200;-79
2024/01/18 06:32:22;;;;;;;87.70;74.80;;;;;;;1.46;100.00;97973.25;108135;1288;24930;-78
2024/01/18 06:34:57;;;;;;;86.00;73.00;;;;;;;1.45;100.00;97979.09;108159;1288;21999;-80
2024/01/18 06:37:41;;;;;;;83.60;72.40;;;;;;;1.44;100.00;97983.63;108128;1288;22014;-78
2024/01/18 06:40:17;;;;;;;78.60;69.40;;;;;;;1.42;100.00;97991.42;108161;1288;22030;-79
2024/01/18 06:42:54;;;;;;;87.30;74.90;;;;;;;1.38;100.00;97998.91;108108;1288;22000;-78
2024/01/18 06:45:35;;;;;;;86.00;71.10;;;;;;;1.36;100.00;97997.27;108114;1288;24379;-78
2024/01/18 06:48:09;;;;;;;85.90;75.00;;;;;;;1.34;100.00;97994.80;108064;1288;22002;-78
2024/01/18 06:50:51;;;;;;;90.20;73.80;;;;;;;1.30;100.00;97996.31;108034;1288;22001;-79
2024/01/18 06:53:23;;;;;;;86.80;72.60;;;;;;;1.28;100.00;98006.50;108272;1288;21976;-79
2024/01/18 06:55:54;;;;;;;87.20;73.60;;;;;;;1.28;100.00;98008.04;108184;1288;23056;-77
2024/01/18 06:58:26;;;;;;;87.00;73.90;;;;;;;1.27;100.00;98006.34;107802;1291;23151;-78
2024/01/18 07:01:00;;;;;;;87.60;76.40;;;;;;;1.25;100.00;98009.85;107811;1291;21983;-80
2024/01/18 07:03:35;;;;;;;87.10;75.00;;;;;;;1.26;100.00;98013.09;107723;1291;22007;-79
2024/01/18 07:06:16;;;;;;;96.30;81.20;;;;;;;1.22;100.00;98009.64;107903;1291;23106;-79
2024/01/18 07:08:51;;;;;;;92.50;80.10;;;;;;;1.22;100.00;98014.08;107660;1291;22067;-78
2024/01/18 07:11:33;;;;;;;96.40;77.90;;;;;;;1.25;100.00;98029.22;107993;1291;22032;-79
2024/01/18 07:14:08;;;;;;;96.70;83.90;;;;;;;1.24;100.00;98036.65;108049;1288;22645;-78
2024/01/18 07:16:47;;;;;;;99.30;83.90;;;;;;;1.22;100.00;98044.39;108566;1283;21990;-78
2024/01/18 07:19:58;;;;;;;104.60;83.60;;;;;;;1.20;100.00;98051.00;108421;1283;22050;-80
2024/01/18 07:22:30;;;;;;;94.50;79.70;;;;;;;1.16;100.00;98051.12;108616;1283;23100;-78
2024/01/18 07:25:01;;;;;;;97.20;83.10;;;;;;;1.13;100.00;98052.44;108117;1287;23145;-78
2024/01/18 07:27:32;;;;;;;88.60;76.10;;;;;;;1.14;100.00;98052.92;108301;1287;23650;-78
2024/01/18 07:30:07;;;;;;;;;;;;;;;1.18;100.00;98058.95;107863;1292;22036;-80
2024/01/18 07:32:39;;;;;;;85.10;74.00;;;;;;;1.09;100.00;98059.61;107737;1292;22023;-78
2024/01/18 07:35:08;;;;;;;88.50;73.10;;;;;;;1.08;100.00;98061.36;107252;1299;22535;-79
2024/01/18 07:37:48;;;;;;;90.00;74.80;;;;;;;1.11;100.00;98066.23;107204;1299;23641;-79
2024/01/18 07:40:20;;;;;;;86.70;65.90;;;;;;;1.11;100.00;98070.84;107247;1299;23035;-80
2024/01/18 07:42:56;;;;;;;88.60;73.90;;;;;;;1.11;100.00;98071.86;106855;1302;24260;-82
2024/01/18 07:45:31;;;;;;;76.60;65.60;;;;;;;1.10;100.00;98077.23;106790;1305;23740;-81
2024/01/18 07:48:04;;;;;;;81.60;68.30;;;;;;;1.06;100.00;98081.31;106366;1307;23656;-81
2024/01/18 07:50:39;;;;;;;90.60;74.50;;;;;;;1.02;100.00;98083.33;106546;1306;22036;-81
2024/01/18 07:53:10;;;;;;;;;;;;;;;1.00;100.00;98083.05;106512;1306;22024;-79
2024/01/18 07:55:44;;;;;;;82.60;67.50;;;;;;;0.91;100.00;98084.23;106708;1307;22019;-79
2024/01/18 07:58:29;;;;;;;76.50;63.30;;;;;;;0.87;100.00;98076.30;106335;1307;22093;-79
2024/01/18 08:01:04;;;;;;;86.70;73.50;;;;;;;0.87;100.00;98073.91;106814;1300;22062;-81
2024/01/18 08:03:42;;;;;;;84.00;69.00;;;;;;;0.88;100.00;98077.48;107343;1296;22215;-85
2024/01/18 08:06:12;;;;;;;76.60;64.90;;;;;;;0.89;100.00;98082.74;107895;1292;24335;-80
2024/01/18 08:08:42;;;;;;;79.30;65.30;;;;;;;0.89;100.00;98087.04;107991;1292;23494;-80
2024/01/18 08:11:14;;;;;;;77.70;64.40;;;;;;;0.91;100.00;98081.46;107570;1297;22008;-81
2024/01/18 08:14:14;;;;;;;79.50;64.10;;;;;;;0.97;100.00;98078.02;107843;1293;23141;-83
2024/01/18 08:16:58;;;;;;;74.60;62.90;;;;;;;1.01;100.00;98068.63;107436;1298;22773;-81
2024/01/18 08:19:44;;;;;;;83.00;63.10;;;;;;;1.03;100.00;98063.95;107153;1300;22206;-80
2024/01/18 08:22:17;;;;;;;63.60;56.70;;;;;;;1.04;100.00;98071.64;106675;1305;23168;-80
2024/01/18 08:24:53;;;;;;;75.30;61.90;;;;;;;1.05;100.00;98081.00;106578;1304;22015;-79
2024/01/18 08:27:42;;;;;;;77.90;63.90;;;;;;;1.03;100.00;98082.77;106504;1306;25162;-77
2024/01/18 08:30:15;;;;;;;75.00;63.30;;;;;;;1.04;100.00;98088.03;107148;1299;22031;-79
2024/01/18 08:32:52;;;;;;;77.00;62.90;;;;;;;1.06;100.00;98088.50;107130;1300;22789;-78
2024/01/18 08:35:29;;;;;;;77.70;66.60;;;;;;;1.06;100.00;98100.31;106935;1299;24364;-78
2024/01/18 08:38:07;;;;;;;78.30;64.90;;;;;;;1.08;100.00;98123.02;107339;1293;22023;-78
2024/01/18 08:40:54;;;;;;;87.10;71.20;;;;;;;1.07;100.00;98132.66;107861;1288;21995;-78
2024/01/18 08:43:31;;;;;;;84.20;69.50;;;;;;;1.05;100.00;98138.70;108024;1288;23145;-79
2024/01/18 08:46:14;;;;;;;81.20;66.10;;;;;;;1.06;100.00;98142.30;108005;1288;24334;-76
2024/01/18 08:48:57;;;;;;;73.90;64.10;;;;;;;1.06;100.00;98157.04;107987;1288;22471;-79
2024/01/18 08:51:40;;;;;;;69.10;60.00;;;;;;;1.00;100.00;98167.66;107717;1292;23071;-77
2024/01/18 08:54:32;;;;;;;77.30;63.30;;;;;;;0.97;100.00;98176.65;107921;1289;22787;-77
2024/01/18 08:57:44;;;;;;;77.50;66.90;;;;;;;0.97;100.00;98181.95;107924;1288;21995;-79
2024/01/18 09:00:27;;;;;;;84.60;71.30;;;;;;;0.96;100.00;98182.69;108306;1288;22190;-80
2024/01/18 09:03:11;;;;;;;76.10;66.30;;;;;;;0.99;100.00;98170.61;108309;1288;22022;-79
2024/01/18 09:05:53;;;;;;;78.50;65.30;;;;;;;1.02;100.00;98162.11;108013;1288;22000;-79
2024/01/18 09:08:24;;;;;;;74.10;62.20;;;;;;;1.04;100.00;98163.91;108318;1288;24343;-78
2024/01/18 09:11:06;;;;;;;74.40;62.90;;;;;;;1.08;100.00;98168.61;108676;1283;21997;-79
2024/01/18 09:13:48;;;;;;;75.60;64.80;;;;;;;1.06;100.00;98171.58;108521;1283;22007;-78
2024/01/18 09:16:32;;;;;;;74.60;64.40;;;;;;;1.05;100.00;98166.47;108297;1283;22004;-78
2024/01/18 09:19:20;;;;;;;75.70;63.80;;;;;;;1.06;100.00;98161.65;108042;1287;22296;-80
2024/01/18 09:21:56;;;;;;;77.00;65.50;;;;;;;1.06;100.00;98164.70;108188;1287;22010;-76
2024/01/18 09:24:49;;;;;;;75.70;62.30;;;;;;;1.09;100.00;98152.97;108119;1287;23625;-80
2024/01/18 09:27:39;;;;;;;77.30;66.00;;;;;;;1.12;100.00;98152.19;108148;1287;22012;-79
2024/01/18 09:30:30;;;;;;;83.80;67.20;;;;;;;1.14;100.00;98158.60;108218;1287;21984;-79
2024/01/18 09:33:17;;;;;;;79.40;66.10;;;;;;;1.18;100.00;98167.20;108363;1287;22001;-79
2024/01/18 09:36:01;;;;;;;78.30;66.70;;;;;;;1.20;100.00;98179.99;108062;1287;23036;-79
2024/01/18 09:38:48;;;;;;;83.80;70.20;;;;;;;1.22;100.00;98189.36;108426;1283;22018;-78
2024/01/18 09:41:42;;;;;;;75.70;65.00;;;;;;;1.23;100.00;98204.05;108057;1288;22021;-78
2024/01/18 09:44:53;;;;;;;82.90;66.00;;;;;;;1.20;100.00;98214.77;108052;1287;22056;-78
2024/01/18 09:47:30;;;;;;;80.50;65.10;;;;;;;1.17;100.00;98220.19;108141;1288;22027;-79
2024/01/18 09:50:19;;;;;;;80.70;71.60;;;;;;;1.09;100.00;98220.63;108050;1288;22019;-80
2024/01/18 09:53:13;;;;;;;85.80;76.50;;;;;;;1.05;100.00;98220.09;108017;1288;22034;-79
2024/01/18 09:56:26;;;;;;;90.10;75.00;;;;;;;1.01;100.00;98221.23;107574;1293;22004;-79
2024/01/18 09:59:16;;;;;;;77.90;67.70;;;;;;;0.98;100.00;98225.80;107564;1289;22008;-79
2024/01/18 10:02:07;;;;;;;83.60;67.60;;;;;;;0.97;100.00;98228.06;107722;1290;23673;-80
2024/01/18 10:05:23;;;;;;;80.40;68.30;;;;;;;0.97;100.00;98235.58;107745;1292;22050;-79
2024/01/18 10:08:12;;;;;;;95.70;85.00;;;;;;;1.00;100.00;98241.66;107681;1292;22015;-76
2024/01/18 10:11:01;;;;;;;84.70;71.80;;;;;;;1.04;100.00;98249.75;107882;1292;23074;-78
2024/01/18 10:14:02;;;;;;;82.30;71.00;;;;;;;1.08;100.00;98258.85;107377;1295;22154;-80
2024/01/18 10:16:41;;;;;;;80.20;65.70;;;;;;;1.08;100.00;98262.10;107175;1292;23078;-78
2024/01/18 10:19:25;;;;;;;67.80;58.10;;;;;;;1.11;100.00;98264.08;106724;1300;22029;-79
2024/01/18 10:22:12;;;;;;;71.30;59.60;;;;;;;1.08;100.00;98264.52;107156;1299;22522;-79
2024/01/18 10:25:08;;;;;;;77.10;61.60;;;;;;;1.03;100.00;98259.36;106768;1302;22038;-80
2024/01/18 10:28:04;;;;;;;81.70;66.30;;;;;;;0.97;100.00;98256.48;107271;1297;22055;-80
2024/01/18 10:31:14;;;;;;;72.60;61.70;;;;;;;0.92;100.00;98257.84;107578;1291;22003;-78
2024/01/18 10:33:46;;;;;;;78.00;62.60;;;;;;;0.95;100.00;98254.48;107838;1291;22014;-79
2024/01/18 10:36:36;;;;;;;76.60;66.90;;;;;;;1.04;100.00;98251.98;107708;1291;22000;-78
2024/01/18 10:39:47;;;;;;;;;;;;;;;;;;;;;
2024/01/18 10:43:16;;;;;;;79.90;64.40;;;;;;;1.23;100.00;98254.44;107589;1293;22022;-80
2024/01/18 10:46:15;;;;;;;81.30;65.20;;;;;;;1.32;100.00;98260.14;107608;1296;22230;-78
2024/01/18 10:49:00;;;;;;;78.30;65.60;;;;;;;1.42;100.00;98235.13;107816;1294;21719;-78
2024/01/18 10:51:40;;;;;;;72.60;63.40;;;;;;;1.51;100.00;98237.03;107547;1293;22090;-78
2024/01/18 10:54:16;;;;;;;76.40;63.90;;;;;;;1.56;100.00;98247.83;107417;1295;23889;-78
2024/01/18 10:57:17;;;;;;;75.10;62.70;;;;;;;1.62;100.00;98253.63;107524;1296;22033;-82
2024/01/18 11:00:17;;;;;;;74.90;64.60;;;;;;;1.67;100.00;98256.19;107223;1300;22087;-77
2024/01/18 11:03:04;;;;;;;69.30;60.70;;;;;;;1.76;100.00;98263.06;107234;1298;22017;-76
2024/01/18 11:05:33;;;;;;;80.50;66.90;;;;;;;1.88;100.00;98273.08;106991;1299;22034;-79
2024/01/18 11:08:15;;;;;;;69.00;58.20;;;;;;;1.90;100.00;98280.92;106562;1304;22089;-79
2024/01/18 11:10:53;;;;;;;71.40;63.50;;;;;;;1.92;100.00;98280.15;106596;1304;23136;-78
2024/01/18 11:14:05;;;;;;;70.80;62.00;;;;;;;1.95;100.00;98275.79;106607;1304;22070;-79
2024/01/18 11:16:58;;;;;;;70.50;60.90;;;;;;;1.92;100.00;98277.60;106313;1308;22348;-79
2024/01/18 11:19:47;;;;;;;75.70;65.00;;;;;;;1.92;100.00;98277.77;106674;1304;22040;-80
2024/01/18 11:22:53;;;;;;;71.30;62.90;;;;;;;1.89;100.00;98276.16;106901;1297;22008;-78
2024/01/18 11:25:55;;;;;;;68.30;60.80;;;;;;;1.85;100.00;98277.00;107504;1294;24220;-77
2024/01/18 11:29:25;;;;;;;73.10;63.80;;;;;;;1.78;100.00;98264.22;107717;1294;22007;-79
2024/01/18 11:32:22;;;;;;;70.40;59.20;;;;;;;1.69;100.00;98271.02;107973;1286;22254;-78
2024/01/18 11:35:18;;;;;;;67.40;57.10;;;;;;;1.70;100.00;98277.16;108404;1276;23065;-79
2024/01/18 11:38:29;;;;;;;73.10;59.50;;;;;;;1.72;100.00;98287.71;108058;1277;22070;-79
2024/01/18 11:41:21;;;;;;;76.60;62.80;;;;;;;1.71;100.00;98296.33;107876;1289;22027;-78
2024/01/18 11:44:09;;;;;;;73.60;61.00;;;;;;;1.73;100.00;98301.08;108062;1289;23607;-79
2024/01/18 11:46:46;;;;;;;65.50;56.20;;;;;;;1.71;100.00;98279.36;107497;1296;22085;-78
2024/01/18 11:49:16;;;;;;;64.90;54.30;;;;;;;1.65;100.00;98266.38;107445;1296;21993;-77
2024/01/18 11:52:05;;;;;;;69.40;61.70;;;;;;;1.63;100.00;98269.86;107542;1296;23725;-78
2024/01/18 11:55:02;;;;;;;67.70;60.30;;;;;;;1.61;100.00;98261.36;107134;1301;22778;-79
2024/01/18 11:58:08;;;;;;;69.10;61.20;;;;;;;1.51;100.00;98256.55;107482;1297;22806;-79
2024/01/18 12:00:46;;;;;;;73.60;61.60;;;;;;;1.48;100.00;98259.08;107665;1294;23063;-80
2024/01/18 12:03:49;;;;;;;65.30;57.40;;;;;;;1.49;100.00;98271.06;107370;1300;22027;-79
2024/01/18 12:06:28;;;;;;;71.10;59.90;;;;;;;1.52;100.00;98289.44;107736;1295;23399;-82
2024/01/18 12:09:05;;;;;;;60.10;52.70;;;;;;;1.57;100.00;98298.03;107799;1292;22013;-80
2024/01/18 12:12:41;;;;;;;69.50;59.10;;;;;;;1.54;100.00;98306.16;107401;1298;22510;-80